Colt, AR (72326)

7:35 AM CDT on July 26, 2016 (GMT -0500)
marianna,arrkansas | | Change Station

Elev 230 ft 34.77 °N, 90.77 °W | Updated 5 minutes ago

Clear
Clear
82.4 °F
Feels Like 92 °F
N
1.7
Wind Variable Wind from ESE

Today
High -- | Low -- °F
--% Chance of Precip.
Yesterday
High -- | Low -- °F
Precip. -- in
Pressure 29.98 in
Visibility 9.0 miles
Clouds Clear
Heat Index 92 °F
Dew Point 78 °F
Humidity 88%
Rainfall 0.00 in
Snow Depth Not available.
6:08 AM 8:10 PM
Waning Gibbous, 55% visible
METAR KAWM 261153Z AUTO 15003KT 9SM CLR 24/23 A2999 RMK AO2 SLP151 T02390233 10261 20239 53010
Pressure 29.98 in
Visibility 9.0 miles
Clouds Clear
Heat Index 92 °F
Dew Point 78 °F
Humidity 88%
Rainfall 0.00 in
Snow Depth Not available.
6:08 AM 8:10 PM
Waning Gibbous, 55% visible
METAR KAWM 261153Z AUTO 15003KT 9SM CLR 24/23 A2999 RMK AO2 SLP151 T02390233 10261 20239 53010

10-Day Weather Forecast

Almanac

Astronomy

Jul. 26, 2016 Rise Set
Actual Time
Civil Twilight
Nautical Twilight
Astronomical Twilight
Moon
Length of Visible Light
Length of Day
Tomorrow will be .
, % of the Moon is Illuminated

Today's Extremes

State Highs State Lows

Community

WunderPhotos

Upload Photos

1,927,581 photos uploaded!

WunderBlog® & News

Nearby

Air Quality

  Air Quality AQ Index Pollutant
Not available.

Snow Depth

Station Depth Elevation

Earthquake Activity

City Distance Mag. Time & Date
Minimum magnitude displayed is 2.5.

Coastal Water Temperatures

Place Temperature

Stations

Nearby Weather Stations

Station Location Temp. Windchill Dew Point Humidity Wind Precip. Elev Updated Type
                   

Watches & Warnings

There are currently no watches in effect.